createdAt,value
2022-09-10T00:01:23.769Z,99.90
2022-09-10T00:03:50.750Z,99.90
2022-09-10T00:06:18.740Z,99.90
2022-09-10T00:08:46.477Z,99.90
2022-09-10T00:11:14.993Z,99.90
2022-09-10T00:13:42.037Z,99.90
2022-09-10T00:16:10.753Z,99.90
2022-09-10T00:18:38.641Z,99.90
2022-09-10T00:21:07.342Z,99.90
2022-09-10T00:23:34.488Z,99.90
2022-09-10T00:26:08.395Z,99.90
2022-09-10T00:28:35.215Z,99.90
2022-09-10T00:31:03.297Z,99.90
2022-09-10T00:33:30.160Z,99.90
2022-09-10T00:35:59.601Z,99.90
2022-09-10T00:38:30.049Z,99.90
2022-09-10T00:41:03.541Z,99.90
2022-09-10T00:43:44.993Z,99.90
2022-09-10T00:46:11.820Z,99.90
2022-09-10T00:48:38.736Z,99.90
2022-09-10T00:51:05.853Z,99.90
2022-09-10T00:53:32.665Z,99.90
2022-09-10T00:55:59.992Z,99.90
2022-09-10T00:58:27.222Z,99.90
2022-09-10T01:00:56.498Z,99.90
2022-09-10T01:03:25.731Z,99.90
2022-09-10T01:05:52.731Z,99.90
2022-09-10T01:08:20.759Z,99.90
2022-09-10T01:11:13.255Z,99.90
2022-09-10T01:14:11.554Z,99.90
2022-09-10T01:16:45.037Z,99.90
2022-09-10T01:19:22.246Z,99.90
2022-09-10T01:22:26.255Z,99.90
2022-09-10T01:24:54.538Z,99.90
2022-09-10T01:27:38.621Z,99.90
2022-09-10T01:30:10.557Z,99.90
2022-09-10T01:32:47.430Z,99.90
2022-09-10T01:35:27.854Z,99.90
2022-09-10T01:37:56.727Z,99.90
2022-09-10T01:40:29.681Z,99.90
2022-09-10T01:43:03.824Z,99.90
2022-09-10T01:45:31.419Z,99.90
2022-09-10T01:48:07.464Z,99.90
2022-09-10T01:51:05.977Z,99.90
2022-09-10T01:53:43.891Z,99.90
2022-09-10T01:56:36.590Z,99.90
2022-09-10T01:59:39.256Z,99.90
2022-09-10T02:02:19.822Z,99.90
2022-09-10T02:04:47.587Z,99.90
2022-09-10T02:07:14.740Z,99.90
2022-09-10T02:09:42.449Z,99.90
2022-09-10T02:12:10.120Z,99.90
2022-09-10T02:14:57.541Z,99.90
2022-09-10T02:17:53.762Z,99.90
2022-09-10T02:20:21.522Z,99.90
2022-09-10T02:22:52.540Z,99.90
2022-09-10T02:25:20.219Z,99.90
2022-09-10T02:27:47.120Z,99.90
2022-09-10T02:30:13.957Z,99.90
2022-09-10T02:32:42.972Z,99.90
2022-09-10T02:35:10.159Z,99.90
2022-09-10T02:37:37.246Z,99.90
2022-09-10T02:40:05.244Z,99.90
2022-09-10T02:42:33.560Z,99.90
2022-09-10T02:45:00.510Z,99.90
2022-09-10T02:47:27.471Z,99.90
2022-09-10T02:49:55.161Z,99.90
2022-09-10T02:52:22.433Z,99.90
2022-09-10T02:54:50.459Z,99.90
2022-09-10T02:57:17.310Z,99.90
2022-09-10T02:59:44.131Z,99.90
2022-09-10T03:02:11.664Z,99.90
2022-09-10T03:04:38.928Z,99.90
2022-09-10T03:07:05.769Z,99.90
2022-09-10T03:09:35.678Z,99.90
2022-09-10T03:12:02.786Z,99.90
2022-09-10T03:14:31.515Z,99.90
2022-09-10T03:16:58.420Z,99.90
2022-09-10T03:19:25.779Z,99.90
2022-09-10T03:21:53.077Z,99.90
2022-09-10T03:24:19.992Z,99.90
2022-09-10T03:26:46.843Z,99.90
2022-09-10T03:29:15.589Z,99.90
2022-09-10T03:31:44.943Z,99.90
2022-09-10T03:34:12.632Z,99.90
2022-09-10T03:36:40.943Z,99.90
2022-09-10T03:39:10.121Z,99.90
2022-09-10T03:41:37.538Z,99.90
2022-09-10T03:44:05.269Z,99.90
2022-09-10T03:46:32.637Z,99.90
2022-09-10T03:49:02.460Z,99.90
2022-09-10T03:51:31.193Z,99.90
2022-09-10T03:53:59.737Z,99.90
2022-09-10T03:56:27.645Z,99.90
2022-09-10T03:58:54.501Z,99.90
2022-09-10T04:01:21.828Z,99.90
2022-09-10T04:03:49.268Z,99.90
2022-09-10T04:06:18.978Z,99.90
2022-09-10T04:08:49.232Z,99.90
2022-09-10T04:11:16.400Z,99.90
2022-09-10T04:13:43.946Z,99.90
2022-09-10T04:16:12.461Z,99.90
2022-09-10T04:18:40.530Z,99.90
2022-09-10T04:21:07.649Z,99.90
2022-09-10T04:23:35.294Z,99.90
2022-09-10T04:26:15.447Z,99.90
2022-09-10T04:28:44.338Z,99.90
2022-09-10T04:31:11.927Z,99.90
2022-09-10T04:33:39.155Z,99.90
2022-09-10T04:36:06.551Z,99.90
2022-09-10T04:38:40.604Z,99.90
2022-09-10T04:41:09.122Z,99.90
2022-09-10T04:43:36.718Z,99.90
2022-09-10T04:46:03.688Z,99.90
2022-09-10T04:48:33.016Z,99.90
2022-09-10T04:51:15.821Z,99.90
2022-09-10T04:53:45.873Z,99.90
2022-09-10T04:56:13.147Z,99.90
2022-09-10T04:58:41.205Z,99.90
2022-09-10T05:01:08.641Z,99.90
2022-09-10T05:03:35.632Z,99.90
2022-09-10T05:06:03.204Z,99.90
2022-09-10T05:08:30.205Z,99.90
2022-09-10T05:11:00.529Z,99.90
2022-09-10T05:13:28.613Z,99.90
2022-09-10T05:15:55.495Z,99.90
2022-09-10T05:18:22.709Z,99.90
2022-09-10T05:20:49.854Z,99.90
2022-09-10T05:23:16.712Z,99.90
2022-09-10T05:25:44.390Z,99.90
2022-09-10T05:28:11.407Z,99.90
2022-09-10T05:30:38.439Z,99.90
2022-09-10T05:33:05.844Z,99.90
2022-09-10T05:35:34.796Z,99.90
2022-09-10T05:38:01.814Z,99.90
2022-09-10T05:40:31.264Z,99.90
2022-09-10T05:42:58.556Z,99.90
2022-09-10T05:45:25.841Z,99.90
2022-09-10T05:47:53.111Z,99.90
2022-09-10T05:50:23.331Z,99.90
2022-09-10T05:52:51.786Z,99.90
2022-09-10T05:55:18.711Z,99.90
2022-09-10T05:57:47.364Z,99.90
2022-09-10T06:00:17.403Z,99.90
2022-09-10T06:02:57.521Z,99.90
2022-09-10T06:05:29.054Z,99.90
2022-09-10T06:07:56.764Z,99.90
2022-09-10T06:10:23.780Z,99.90
2022-09-10T06:12:52.147Z,99.90
2022-09-10T06:15:20.200Z,99.90
2022-09-10T06:17:48.559Z,99.90
2022-09-10T06:20:16.359Z,99.90
2022-09-10T06:22:44.966Z,99.90
2022-09-10T06:25:12.821Z,99.90
2022-09-10T06:27:40.899Z,99.90
2022-09-10T06:30:08.386Z,99.90
2022-09-10T06:32:39.379Z,99.90
2022-09-10T06:35:09.076Z,99.90
2022-09-10T06:37:37.267Z,99.90
2022-09-10T06:40:07.415Z,99.90
2022-09-10T06:42:34.823Z,99.90
2022-09-10T06:45:07.963Z,99.90
2022-09-10T06:48:37.186Z,99.90
2022-09-10T06:50:53.219Z,99.90
2022-09-10T06:53:22.170Z,99.90
2022-09-10T06:55:52.923Z,99.90
2022-09-10T06:58:20.890Z,99.90
2022-09-10T07:00:48.140Z,99.90
2022-09-10T07:03:17.417Z,99.90
2022-09-10T07:05:45.630Z,99.90
2022-09-10T07:08:14.780Z,99.90
2022-09-10T07:10:44.460Z,99.90
2022-09-10T07:13:12.822Z,99.90
2022-09-10T07:15:49.515Z,99.90
2022-09-10T07:18:16.959Z,99.90
2022-09-10T07:20:44.885Z,99.90
2022-09-10T07:23:12.871Z,99.90
2022-09-10T07:25:41.515Z,99.90
2022-09-10T07:28:16.926Z,99.90
2022-09-10T07:30:47.452Z,99.90
2022-09-10T07:33:15.458Z,99.90
2022-09-10T07:35:44.195Z,99.90
2022-09-10T07:38:14.135Z,99.90
2022-09-10T07:40:43.795Z,99.90
2022-09-10T07:43:11.069Z,99.90
2022-09-10T07:45:39.638Z,99.90
2022-09-10T07:48:06.582Z,99.90
2022-09-10T07:50:38.437Z,99.90
2022-09-10T07:53:06.223Z,99.90
2022-09-10T07:55:34.224Z,99.90
2022-09-10T07:58:01.404Z,99.90
2022-09-10T08:00:31.025Z,99.90
2022-09-10T08:03:03.164Z,99.90
2022-09-10T08:05:31.461Z,99.90
2022-09-10T08:08:00.658Z,99.90
2022-09-10T08:10:28.642Z,99.90
2022-09-10T08:12:57.915Z,99.90
2022-09-10T08:15:24.842Z,99.90
2022-09-10T08:17:52.542Z,99.90
2022-09-10T08:20:21.378Z,99.90
2022-09-10T08:22:51.489Z,99.90
2022-09-10T08:25:20.543Z,99.90
2022-09-10T08:27:47.746Z,99.90
2022-09-10T08:30:15.077Z,99.90
2022-09-10T08:32:42.504Z,99.90
2022-09-10T08:35:10.132Z,99.90
2022-09-10T08:37:38.117Z,99.90
2022-09-10T08:40:05.943Z,99.90
2022-09-10T08:42:37.866Z,99.90
2022-09-10T08:45:13.710Z,99.90
2022-09-10T08:48:02.877Z,99.90
2022-09-10T08:50:46.876Z,99.90
2022-09-10T08:53:32.670Z,99.90
2022-09-10T08:56:02.545Z,99.90
2022-09-10T08:58:56.171Z,99.90
2022-09-10T09:01:43.440Z,99.90
2022-09-10T09:04:22.218Z,99.90
2022-09-10T09:06:51.520Z,99.90
2022-09-10T09:09:22.019Z,99.90
2022-09-10T09:11:58.648Z,99.90
2022-09-10T09:14:45.267Z,99.90
2022-09-10T09:17:39.359Z,99.90
2022-09-10T09:20:09.338Z,99.90
2022-09-10T09:23:25.801Z,99.90
2022-09-10T09:26:04.143Z,99.90
2022-09-10T09:28:49.524Z,99.90
2022-09-10T09:31:23.291Z,99.90
2022-09-10T09:33:51.800Z,99.90
2022-09-10T09:36:19.938Z,99.90
2022-09-10T09:38:52.618Z,99.90
2022-09-10T09:41:33.088Z,99.90
2022-09-10T09:44:27.170Z,99.90
2022-09-10T09:46:54.133Z,99.90
2022-09-10T09:49:21.067Z,99.90
2022-09-10T09:51:48.691Z,99.90
2022-09-10T09:54:56.750Z,99.90
2022-09-10T09:57:04.950Z,99.90
2022-09-10T09:59:35.883Z,99.90
2022-09-10T10:02:12.554Z,99.90
2022-09-10T10:04:42.229Z,99.90
2022-09-10T10:07:10.112Z,99.90
2022-09-10T10:09:42.837Z,99.90
2022-09-10T10:12:19.296Z,99.90
2022-09-10T10:14:46.140Z,99.90
2022-09-10T10:17:25.256Z,99.90
2022-09-10T10:19:59.154Z,99.90
2022-09-10T10:22:27.056Z,99.90
2022-09-10T10:24:54.473Z,99.90
2022-09-10T10:27:38.141Z,99.90
2022-09-10T10:30:05.008Z,99.90
2022-09-10T10:32:44.711Z,99.90
2022-09-10T10:35:19.170Z,99.90
2022-09-10T10:38:07.223Z,99.90
2022-09-10T10:40:36.868Z,99.90
2022-09-10T10:43:22.906Z,99.90
2022-09-10T10:46:11.747Z,99.90
2022-09-10T10:48:46.887Z,99.90
2022-09-10T10:51:38.029Z,99.90
2022-09-10T10:54:37.541Z,99.90
2022-09-10T10:57:29.457Z,99.90
2022-09-10T11:00:07.624Z,99.90
2022-09-10T11:03:04.769Z,99.90
2022-09-10T11:05:38.653Z,99.90
2022-09-10T11:08:10.689Z,99.90
2022-09-10T11:10:40.092Z,99.90
2022-09-10T11:13:21.965Z,99.90
2022-09-10T11:15:59.526Z,99.90
2022-09-10T11:18:49.991Z,99.90
2022-09-10T11:21:28.110Z,99.90
2022-09-10T11:24:01.891Z,99.90
2022-09-10T11:26:36.465Z,99.90
2022-09-10T11:29:42.215Z,99.90
2022-09-10T11:32:30.271Z,99.90
2022-09-10T11:35:17.291Z,99.90
2022-09-10T11:37:53.116Z,99.90
2022-09-10T11:40:35.313Z,99.90
2022-09-10T11:43:13.675Z,99.90
2022-09-10T11:45:48.360Z,99.90
2022-09-10T11:48:17.751Z,99.90
2022-09-10T11:51:01.318Z,99.90
2022-09-10T11:53:28.208Z,99.90
2022-09-10T11:56:23.300Z,99.90
2022-09-10T11:58:53.258Z,99.90
2022-09-10T12:01:32.639Z,99.90
2022-09-10T12:04:25.517Z,99.90
2022-09-10T12:07:15.447Z,99.90
2022-09-10T12:10:01.666Z,99.90
2022-09-10T12:12:42.054Z,99.90
2022-09-10T12:15:20.164Z,99.90
2022-09-10T12:17:53.994Z,99.90
2022-09-10T12:20:26.528Z,99.90
2022-09-10T12:22:54.740Z,99.90
2022-09-10T12:25:21.578Z,99.90
2022-09-10T12:27:53.150Z,99.90
2022-09-10T12:30:33.614Z,99.90
2022-09-10T12:33:02.343Z,99.90
2022-09-10T12:35:35.318Z,99.90
2022-09-10T12:38:43.021Z,99.90
2022-09-10T12:41:25.730Z,99.30
2022-09-10T12:43:56.347Z,99.90
2022-09-10T12:46:25.491Z,99.90
2022-09-10T12:48:55.522Z,99.90
2022-09-10T12:51:29.639Z,99.90
2022-09-10T12:54:14.809Z,99.90
2022-09-10T12:57:03.925Z,99.90
2022-09-10T12:59:57.608Z,99.90
2022-09-10T13:02:31.051Z,99.90
2022-09-10T13:05:00.927Z,99.90
2022-09-10T13:07:40.295Z,99.90
2022-09-10T13:10:27.023Z,99.90
2022-09-10T13:12:58.810Z,99.90
2022-09-10T13:15:27.996Z,99.90
2022-09-10T13:17:54.900Z,99.90
2022-09-10T13:20:21.712Z,99.90
2022-09-10T13:23:10.224Z,99.90
2022-09-10T13:25:41.671Z,99.90
2022-09-10T13:28:30.575Z,99.90
2022-09-10T13:31:09.218Z,99.90
2022-09-10T13:34:14.290Z,99.90
2022-09-10T13:37:02.967Z,99.90
2022-09-10T13:40:07.621Z,99.90
2022-09-10T13:42:54.850Z,99.50
2022-09-10T13:45:28.379Z,97.10
2022-09-10T13:48:10.387Z,97.60
2022-09-10T13:50:49.154Z,95.10
2022-09-10T13:53:16.283Z,94.10
2022-09-10T13:56:12.304Z,94.10
2022-09-10T13:58:44.996Z,94.70
2022-09-10T14:01:11.930Z,95.70
2022-09-10T14:03:39.231Z,96.40
2022-09-10T14:06:22.496Z,96.20
2022-09-10T14:09:02.200Z,96.50
2022-09-10T14:11:33.315Z,97.40
2022-09-10T14:14:14.203Z,99.10
2022-09-10T14:16:49.599Z,99.20
2022-09-10T14:19:23.591Z,99.90
2022-09-10T14:21:51.404Z,99.90
2022-09-10T14:24:37.496Z,99.90
2022-09-10T14:27:06.031Z,99.90
2022-09-10T14:29:32.906Z,99.90
2022-09-10T14:32:29.279Z,99.90
2022-09-10T14:34:56.295Z,99.70
2022-09-10T14:37:33.447Z,99.00
2022-09-10T14:40:06.548Z,98.40
2022-09-10T14:42:35.009Z,97.50
2022-09-10T14:45:02.906Z,96.60
2022-09-10T14:47:35.083Z,96.20
2022-09-10T14:50:27.631Z,96.00
2022-09-10T14:52:55.218Z,96.20
2022-09-10T14:55:25.314Z,97.00
2022-09-10T14:57:55.744Z,97.50
2022-09-10T15:00:23.495Z,99.70
2022-09-10T15:02:51.288Z,99.90
2022-09-10T15:05:18.386Z,99.00
2022-09-10T15:07:45.575Z,98.20
2022-09-10T15:10:12.569Z,98.60
2022-09-10T15:12:40.660Z,99.50
2022-09-10T15:15:16.844Z,99.90
2022-09-10T15:17:44.461Z,99.90
2022-09-10T15:20:16.831Z,99.90
2022-09-10T15:22:44.053Z,99.90
2022-09-10T15:25:36.000Z,99.90
2022-09-10T15:28:05.197Z,99.90
2022-09-10T15:30:32.043Z,99.90
2022-09-10T15:32:58.911Z,99.90
2022-09-10T15:35:25.735Z,99.90
2022-09-10T15:37:52.605Z,99.90
2022-09-10T15:40:19.442Z,99.90
2022-09-10T15:42:46.498Z,99.90
2022-09-10T15:45:13.428Z,99.90
2022-09-10T15:47:41.997Z,99.90
2022-09-10T15:50:14.343Z,99.90
2022-09-10T15:52:41.181Z,99.90
2022-09-10T15:55:08.510Z,99.90
2022-09-10T15:57:36.238Z,99.90
2022-09-10T16:00:06.858Z,99.90
2022-09-10T16:02:34.209Z,99.90
2022-09-10T16:05:01.259Z,99.90
2022-09-10T16:07:29.340Z,99.90
2022-09-10T16:09:58.765Z,99.90
2022-09-10T16:12:28.378Z,99.90
2022-09-10T16:14:55.601Z,99.90
2022-09-10T16:17:22.542Z,99.90
2022-09-10T16:19:51.330Z,99.90
2022-09-10T16:22:20.656Z,99.90
2022-09-10T16:24:47.796Z,99.90
2022-09-10T16:27:17.389Z,99.90
2022-09-10T16:29:44.237Z,99.90
2022-09-10T16:32:11.078Z,99.90
2022-09-10T16:34:38.653Z,99.90
2022-09-10T16:37:05.722Z,99.90
2022-09-10T16:39:32.542Z,99.90
2022-09-10T16:41:59.475Z,99.90
2022-09-10T16:44:26.902Z,99.90
2022-09-10T16:46:53.789Z,99.90
2022-09-10T16:49:20.656Z,99.90
2022-09-10T16:51:47.815Z,99.90
2022-09-10T16:54:15.890Z,99.90
2022-09-10T16:56:44.171Z,99.90
2022-09-10T16:59:22.496Z,99.90
2022-09-10T17:01:50.081Z,99.90
2022-09-10T17:04:26.038Z,99.90
2022-09-10T17:06:55.787Z,99.90
2022-09-10T17:09:22.720Z,99.90
2022-09-10T17:11:49.547Z,99.90
2022-09-10T17:14:16.373Z,99.90
2022-09-10T17:16:43.806Z,99.90
2022-09-10T17:19:15.478Z,99.90
2022-09-10T17:21:44.687Z,99.90
2022-09-10T17:24:12.232Z,99.90
2022-09-10T17:26:39.577Z,99.90
2022-09-10T17:29:12.635Z,99.90
2022-09-10T17:31:39.731Z,99.90
2022-09-10T17:34:06.638Z,99.90
2022-09-10T17:36:33.722Z,99.90
2022-09-10T17:39:00.725Z,99.90
2022-09-10T17:41:28.218Z,99.90
2022-09-10T17:43:55.592Z,99.90
2022-09-10T17:46:23.479Z,99.90
2022-09-10T17:48:51.116Z,99.90
2022-09-10T17:51:25.695Z,99.90
2022-09-10T17:53:54.010Z,99.90
2022-09-10T17:56:21.549Z,99.90
2022-09-10T17:58:48.785Z,99.90
2022-09-10T18:01:24.458Z,99.90
2022-09-10T18:03:51.862Z,99.90
2022-09-10T18:06:18.946Z,99.90
2022-09-10T18:08:45.850Z,99.90
2022-09-10T18:11:15.299Z,99.90
2022-09-10T18:13:42.449Z,99.90
2022-09-10T18:16:10.355Z,99.90
2022-09-10T18:18:37.522Z,99.90
2022-09-10T18:21:14.146Z,99.90
2022-09-10T18:23:41.705Z,99.90
2022-09-10T18:26:12.360Z,99.90
2022-09-10T18:28:39.200Z,99.90
2022-09-10T18:31:06.745Z,99.90
2022-09-10T18:33:38.454Z,99.90
2022-09-10T18:36:12.922Z,99.90
2022-09-10T18:38:40.316Z,99.90
2022-09-10T18:41:20.178Z,99.90
2022-09-10T18:43:47.659Z,99.90
2022-09-10T18:46:15.036Z,99.90
2022-09-10T18:48:42.402Z,99.90
2022-09-10T18:51:10.774Z,99.90
2022-09-10T18:53:38.616Z,99.90
2022-09-10T18:56:10.022Z,99.90
2022-09-10T18:58:37.290Z,99.90
2022-09-10T19:01:07.682Z,99.90
2022-09-10T19:03:39.608Z,99.90
2022-09-10T19:06:08.722Z,99.90
2022-09-10T19:08:37.336Z,99.90
2022-09-10T19:11:06.214Z,99.90
2022-09-10T19:13:33.084Z,99.90
2022-09-10T19:16:00.964Z,99.90
2022-09-10T19:18:29.017Z,99.90
2022-09-10T19:20:56.509Z,99.90
2022-09-10T19:23:23.815Z,99.90
2022-09-10T19:25:54.383Z,99.90
2022-09-10T19:28:21.410Z,99.90
2022-09-10T19:30:49.121Z,99.90
2022-09-10T19:33:16.598Z,99.90
2022-09-10T19:35:44.588Z,99.90
2022-09-10T19:38:27.478Z,99.90
2022-09-10T19:41:06.830Z,99.90
2022-09-10T19:43:34.439Z,99.90
2022-09-10T19:46:01.349Z,99.90
2022-09-10T19:48:28.156Z,99.90
2022-09-10T19:50:54.994Z,99.90
2022-09-10T19:53:22.242Z,99.90
2022-09-10T19:55:49.469Z,99.90
2022-09-10T19:58:17.650Z,99.90
2022-09-10T20:00:47.168Z,99.90
2022-09-10T20:03:14.884Z,99.90
2022-09-10T20:05:42.726Z,99.90
2022-09-10T20:08:09.921Z,99.90
2022-09-10T20:14:57.140Z,99.90
2022-09-10T20:17:23.871Z,99.90
2022-09-10T20:19:51.386Z,99.90
2022-09-10T20:22:18.175Z,99.90
2022-09-10T20:24:44.936Z,99.90
2022-09-10T20:27:11.661Z,99.90
2022-09-10T20:29:38.421Z,99.90
2022-09-10T20:32:06.871Z,99.90
2022-09-10T20:34:35.021Z,99.90
2022-09-10T20:37:03.126Z,99.90
2022-09-10T20:39:31.668Z,99.90
2022-09-10T20:41:58.602Z,99.90
2022-09-10T20:44:25.993Z,99.90
2022-09-10T20:46:52.780Z,99.90
2022-09-10T20:49:19.619Z,99.90
2022-09-10T20:51:46.457Z,99.90
2022-09-10T20:54:14.967Z,99.90
2022-09-10T20:56:42.660Z,99.90
2022-09-10T20:59:11.217Z,99.90
2022-09-10T21:01:38.736Z,99.90
2022-09-10T21:04:05.622Z,99.90
2022-09-10T21:06:33.032Z,99.90
2022-09-10T21:09:02.061Z,99.90
2022-09-10T21:11:31.643Z,99.90
2022-09-10T21:14:00.077Z,99.90
2022-09-10T21:16:28.318Z,99.90
2022-09-10T21:18:56.603Z,99.90
2022-09-10T21:21:27.938Z,99.90
2022-09-10T21:23:56.422Z,99.90
2022-09-10T21:27:13.302Z,99.90
2022-09-10T21:29:40.319Z,99.90
2022-09-10T21:32:07.435Z,99.90
2022-09-10T21:34:34.454Z,99.90
2022-09-10T21:37:02.046Z,99.90
2022-09-10T21:39:29.456Z,99.90
2022-09-10T21:41:56.819Z,99.90
2022-09-10T21:44:25.136Z,99.90
2022-09-10T21:46:52.579Z,99.90
2022-09-10T21:49:20.505Z,99.90
2022-09-10T21:51:47.782Z,99.90
2022-09-10T21:54:17.144Z,99.90
2022-09-10T21:56:44.414Z,99.90
2022-09-10T21:59:14.847Z,99.90
2022-09-10T22:01:46.408Z,99.90
2022-09-10T22:04:13.788Z,99.90
2022-09-10T22:06:41.096Z,99.90
2022-09-10T22:09:10.297Z,99.90
2022-09-10T22:11:39.368Z,99.90
2022-09-10T22:14:13.367Z,99.90
2022-09-10T22:16:40.687Z,99.90
2022-09-10T22:19:09.805Z,99.90
2022-09-10T22:21:41.104Z,99.90
2022-09-10T22:24:09.587Z,99.90
2022-09-10T22:26:39.486Z,99.90
2022-09-10T22:29:06.527Z,99.90
2022-09-10T22:31:34.708Z,99.90
2022-09-10T22:34:03.456Z,99.90
2022-09-10T22:36:35.288Z,99.90
2022-09-10T22:39:07.166Z,99.90
2022-09-10T22:41:35.139Z,99.90
2022-09-10T22:44:02.743Z,99.90
2022-09-10T22:46:29.801Z,99.90
2022-09-10T22:48:56.889Z,99.90
2022-09-10T22:51:35.399Z,99.90
2022-09-10T22:54:02.580Z,99.90
2022-09-10T22:56:29.892Z,99.90
2022-09-10T22:58:57.839Z,99.90
2022-09-10T23:01:27.795Z,99.90
2022-09-10T23:03:59.527Z,99.90
2022-09-10T23:06:28.492Z,99.90
2022-09-10T23:08:57.163Z,99.90
2022-09-10T23:12:00.014Z,99.90
2022-09-10T23:14:28.898Z,99.90
2022-09-10T23:16:56.880Z,99.90
2022-09-10T23:19:24.951Z,99.90
2022-09-10T23:21:54.009Z,99.90
2022-09-10T23:24:22.597Z,99.90
2022-09-10T23:26:49.619Z,99.90
2022-09-10T23:29:23.060Z,99.90
2022-09-10T23:31:53.469Z,99.90
2022-09-10T23:34:20.982Z,99.90
2022-09-10T23:36:48.375Z,99.90
2022-09-10T23:39:22.366Z,99.90
2022-09-10T23:41:50.206Z,99.90
2022-09-10T23:44:17.665Z,99.90
2022-09-10T23:46:44.839Z,99.90
2022-09-10T23:49:12.830Z,99.90
2022-09-10T23:51:40.077Z,99.90
2022-09-10T23:54:07.070Z,99.90
2022-09-10T23:56:34.079Z,99.90
2022-09-10T23:59:01.356Z,99.90
